Search for airport 
image banner adimage banner adimage banner ad
image banner ad

84CA - Beverly Center

Located in Los Angeles, United States

ICAO - 84CA, IATA -

Data provided by Airmate  

General information

Coordinates: N34°4'26" W118°22'39"
Elevation is 278 feet MSL.
Magnetic variation is 14° East
View others Airports in California

Operational data

Special qualification required
Current time UTC:
Current local time:
Weather at : KSMO - Santa Monica Muni ( 9 km )
METAR: KSMO 221310Z AUTO 20004KT 10SM BKN009 16/13 A2993 RMK AO2 T01610133
TAF: KSMO 221300Z 2213/2312 VRB03KT P6SM SKC FM221700 23008KT P6SM SCT010 FM230400 VRB03KT P6SM SKC FM230800 VRB03KT P6SM BKN009
View NOTAMs / SUP AIP / TFR affecting this airport [VIEW]
Communications frequencies: [VIEW]

Runways:

Airport contact information

Address: Los Angeles United States

Satellite view of 84CA